sensor_id;sensor_type;location;lat;lon;timestamp;P1;durP1;ratioP1;P2;durP2;ratioP2
76593;SDS011;65482;50.240;14.302;2024-01-16T00:01:54;6.63;;;2.70;;
76593;SDS011;65482;50.240;14.302;2024-01-16T00:04:19;6.80;;;3.63;;
76593;SDS011;65482;50.240;14.302;2024-01-16T00:06:45;6.53;;;2.53;;
76593;SDS011;65482;50.240;14.302;2024-01-16T00:09:11;7.50;;;2.22;;
76593;SDS011;65482;50.240;14.302;2024-01-16T00:11:40;5.80;;;2.35;;
76593;SDS011;65482;50.240;14.302;2024-01-16T00:14:06;5.03;;;2.38;;
76593;SDS011;65482;50.240;14.302;2024-01-16T00:16:32;6.07;;;2.63;;
76593;SDS011;65482;50.240;14.302;2024-01-16T00:18:58;7.18;;;2.78;;
76593;SDS011;65482;50.240;14.302;2024-01-16T00:21:23;4.07;;;2.40;;
76593;SDS011;65482;50.240;14.302;2024-01-16T00:23:49;9.40;;;2.90;;
76593;SDS011;65482;50.240;14.302;2024-01-16T00:26:21;6.07;;;2.13;;
76593;SDS011;65482;50.240;14.302;2024-01-16T00:28:47;4.40;;;2.22;;
76593;SDS011;65482;50.240;14.302;2024-01-16T00:31:13;5.00;;;2.55;;
76593;SDS011;65482;50.240;14.302;2024-01-16T00:33:39;5.40;;;2.60;;
76593;SDS011;65482;50.240;14.302;2024-01-16T00:36:05;8.15;;;2.47;;
76593;SDS011;65482;50.240;14.302;2024-01-16T00:38:33;4.05;;;2.10;;
76593;SDS011;65482;50.240;14.302;2024-01-16T00:40:59;5.07;;;2.17;;
76593;SDS011;65482;50.240;14.302;2024-01-16T00:43:25;4.55;;;2.13;;
76593;SDS011;65482;50.240;14.302;2024-01-16T00:45:50;4.28;;;2.20;;
76593;SDS011;65482;50.240;14.302;2024-01-16T00:48:16;5.03;;;1.88;;
76593;SDS011;65482;50.240;14.302;2024-01-16T00:50:41;5.28;;;2.10;;
76593;SDS011;65482;50.240;14.302;2024-01-16T00:53:07;4.85;;;2.03;;
76593;SDS011;65482;50.240;14.302;2024-01-16T00:55:32;5.15;;;1.75;;
76593;SDS011;65482;50.240;14.302;2024-01-16T00:57:58;3.15;;;1.92;;
76593;SDS011;65482;50.240;14.302;2024-01-16T01:00:24;6.70;;;2.30;;
76593;SDS011;65482;50.240;14.302;2024-01-16T01:02:50;4.43;;;1.73;;
76593;SDS011;65482;50.240;14.302;2024-01-16T01:05:15;3.15;;;1.83;;
76593;SDS011;65482;50.240;14.302;2024-01-16T01:07:41;6.30;;;1.60;;
76593;SDS011;65482;50.240;14.302;2024-01-16T01:10:06;5.15;;;1.80;;
76593;SDS011;65482;50.240;14.302;2024-01-16T01:12:32;3.72;;;1.63;;
76593;SDS011;65482;50.240;14.302;2024-01-16T01:14:58;3.22;;;1.80;;
76593;SDS011;65482;50.240;14.302;2024-01-16T01:17:23;3.70;;;1.92;;
76593;SDS011;65482;50.240;14.302;2024-01-16T01:19:49;2.50;;;1.52;;
76593;SDS011;65482;50.240;14.302;2024-01-16T01:22:15;2.85;;;1.75;;
76593;SDS011;65482;50.240;14.302;2024-01-16T01:24:40;3.10;;;1.73;;
76593;SDS011;65482;50.240;14.302;2024-01-16T01:27:06;3.72;;;1.63;;
76593;SDS011;65482;50.240;14.302;2024-01-16T01:29:32;4.75;;;1.80;;
76593;SDS011;65482;50.240;14.302;2024-01-16T01:31:57;4.20;;;1.75;;
76593;SDS011;65482;50.240;14.302;2024-01-16T01:34:23;4.05;;;1.95;;
76593;SDS011;65482;50.240;14.302;2024-01-16T01:36:48;4.18;;;1.92;;
76593;SDS011;65482;50.240;14.302;2024-01-16T01:39:14;3.15;;;1.58;;
76593;SDS011;65482;50.240;14.302;2024-01-16T01:41:40;3.78;;;1.70;;
76593;SDS011;65482;50.240;14.302;2024-01-16T01:44:06;4.88;;;1.65;;
76593;SDS011;65482;50.240;14.302;2024-01-16T01:46:32;3.13;;;1.80;;
76593;SDS011;65482;50.240;14.302;2024-01-16T01:48:59;3.80;;;1.70;;
76593;SDS011;65482;50.240;14.302;2024-01-16T01:51:25;3.63;;;1.65;;
76593;SDS011;65482;50.240;14.302;2024-01-16T01:53:51;2.67;;;1.50;;
76593;SDS011;65482;50.240;14.302;2024-01-16T01:56:18;3.72;;;1.42;;
76593;SDS011;65482;50.240;14.302;2024-01-16T01:58:47;5.00;;;1.50;;
76593;SDS011;65482;50.240;14.302;2024-01-16T02:01:14;3.58;;;1.75;;
76593;SDS011;65482;50.240;14.302;2024-01-16T02:03:42;3.67;;;1.85;;
76593;SDS011;65482;50.240;14.302;2024-01-16T02:06:10;3.72;;;1.55;;
76593;SDS011;65482;50.240;14.302;2024-01-16T02:08:40;1.98;;;1.48;;
76593;SDS011;65482;50.240;14.302;2024-01-16T02:11:06;3.53;;;1.55;;
76593;SDS011;65482;50.240;14.302;2024-01-16T02:13:31;8.27;;;1.50;;
76593;SDS011;65482;50.240;14.302;2024-01-16T02:15:57;3.85;;;1.60;;
76593;SDS011;65482;50.240;14.302;2024-01-16T02:18:23;2.72;;;1.42;;
76593;SDS011;65482;50.240;14.302;2024-01-16T02:20:48;4.65;;;1.60;;
76593;SDS011;65482;50.240;14.302;2024-01-16T02:23:14;4.05;;;1.60;;
76593;SDS011;65482;50.240;14.302;2024-01-16T02:25:41;3.72;;;1.50;;
76593;SDS011;65482;50.240;14.302;2024-01-16T02:28:07;2.97;;;1.45;;
76593;SDS011;65482;50.240;14.302;2024-01-16T02:30:33;5.38;;;1.70;;
76593;SDS011;65482;50.240;14.302;2024-01-16T02:32:59;3.38;;;1.55;;
76593;SDS011;65482;50.240;14.302;2024-01-16T02:35:25;5.30;;;1.88;;
76593;SDS011;65482;50.240;14.302;2024-01-16T02:37:50;2.58;;;1.40;;
76593;SDS011;65482;50.240;14.302;2024-01-16T02:40:16;5.13;;;1.40;;
76593;SDS011;65482;50.240;14.302;2024-01-16T02:42:42;2.50;;;1.50;;
76593;SDS011;65482;50.240;14.302;2024-01-16T02:45:07;2.55;;;1.40;;
76593;SDS011;65482;50.240;14.302;2024-01-16T02:47:33;3.15;;;1.50;;
76593;SDS011;65482;50.240;14.302;2024-01-16T02:49:59;2.67;;;1.60;;
76593;SDS011;65482;50.240;14.302;2024-01-16T02:52:25;3.10;;;1.40;;
76593;SDS011;65482;50.240;14.302;2024-01-16T02:54:51;2.90;;;1.85;;
76593;SDS011;65482;50.240;14.302;2024-01-16T02:57:16;3.25;;;1.70;;
76593;SDS011;65482;50.240;14.302;2024-01-16T02:59:45;2.60;;;1.45;;
76593;SDS011;65482;50.240;14.302;2024-01-16T03:02:10;3.78;;;1.50;;
76593;SDS011;65482;50.240;14.302;2024-01-16T03:04:37;3.00;;;1.50;;
76593;SDS011;65482;50.240;14.302;2024-01-16T03:07:02;2.08;;;1.45;;
76593;SDS011;65482;50.240;14.302;2024-01-16T03:09:28;2.28;;;1.30;;
76593;SDS011;65482;50.240;14.302;2024-01-16T03:11:55;4.35;;;1.65;;
76593;SDS011;65482;50.240;14.302;2024-01-16T03:14:21;2.05;;;1.38;;
76593;SDS011;65482;50.240;14.302;2024-01-16T03:16:46;3.78;;;1.38;;
76593;SDS011;65482;50.240;14.302;2024-01-16T03:19:12;1.88;;;1.40;;
76593;SDS011;65482;50.240;14.302;2024-01-16T03:21:37;2.53;;;1.50;;
76593;SDS011;65482;50.240;14.302;2024-01-16T03:24:04;3.22;;;1.55;;
76593;SDS011;65482;50.240;14.302;2024-01-16T03:26:35;3.67;;;1.25;;
76593;SDS011;65482;50.240;14.302;2024-01-16T03:29:02;3.45;;;1.48;;
76593;SDS011;65482;50.240;14.302;2024-01-16T03:31:28;3.22;;;1.23;;
76593;SDS011;65482;50.240;14.302;2024-01-16T03:33:54;2.72;;;1.38;;
76593;SDS011;65482;50.240;14.302;2024-01-16T03:36:19;3.38;;;1.33;;
76593;SDS011;65482;50.240;14.302;2024-01-16T03:38:45;3.58;;;1.40;;
76593;SDS011;65482;50.240;14.302;2024-01-16T03:41:10;3.03;;;1.30;;
76593;SDS011;65482;50.240;14.302;2024-01-16T03:43:37;2.05;;;1.15;;
76593;SDS011;65482;50.240;14.302;2024-01-16T03:46:03;2.72;;;1.30;;
76593;SDS011;65482;50.240;14.302;2024-01-16T03:48:28;1.90;;;1.13;;
76593;SDS011;65482;50.240;14.302;2024-01-16T03:50:55;1.90;;;1.08;;
76593;SDS011;65482;50.240;14.302;2024-01-16T03:53:21;2.90;;;1.20;;
76593;SDS011;65482;50.240;14.302;2024-01-16T03:55:48;1.38;;;1.05;;
76593;SDS011;65482;50.240;14.302;2024-01-16T03:58:15;4.07;;;1.25;;
76593;SDS011;65482;50.240;14.302;2024-01-16T04:00:41;2.05;;;1.38;;
76593;SDS011;65482;50.240;14.302;2024-01-16T04:03:07;1.98;;;1.30;;
76593;SDS011;65482;50.240;14.302;2024-01-16T04:05:32;2.25;;;1.30;;
76593;SDS011;65482;50.240;14.302;2024-01-16T04:07:58;3.47;;;1.25;;
76593;SDS011;65482;50.240;14.302;2024-01-16T04:10:24;2.67;;;1.27;;
76593;SDS011;65482;50.240;14.302;2024-01-16T04:12:50;3.78;;;1.42;;
76593;SDS011;65482;50.240;14.302;2024-01-16T04:15:15;1.80;;;1.23;;
76593;SDS011;65482;50.240;14.302;2024-01-16T04:17:41;3.10;;;1.30;;
76593;SDS011;65482;50.240;14.302;2024-01-16T04:20:07;1.70;;;1.20;;
76593;SDS011;65482;50.240;14.302;2024-01-16T04:22:32;2.85;;;1.35;;
76593;SDS011;65482;50.240;14.302;2024-01-16T04:24:58;2.72;;;1.50;;
76593;SDS011;65482;50.240;14.302;2024-01-16T04:27:24;3.55;;;1.35;;
76593;SDS011;65482;50.240;14.302;2024-01-16T04:29:50;4.18;;;1.60;;
76593;SDS011;65482;50.240;14.302;2024-01-16T04:32:16;2.13;;;1.70;;
76593;SDS011;65482;50.240;14.302;2024-01-16T04:34:41;2.67;;;1.80;;
76593;SDS011;65482;50.240;14.302;2024-01-16T04:37:07;3.67;;;1.90;;
76593;SDS011;65482;50.240;14.302;2024-01-16T04:39:33;2.60;;;1.42;;
76593;SDS011;65482;50.240;14.302;2024-01-16T04:41:58;5.13;;;1.70;;
76593;SDS011;65482;50.240;14.302;2024-01-16T04:44:24;2.33;;;1.50;;
76593;SDS011;65482;50.240;14.302;2024-01-16T04:46:50;3.45;;;1.65;;
76593;SDS011;65482;50.240;14.302;2024-01-16T04:49:15;2.45;;;1.55;;
76593;SDS011;65482;50.240;14.302;2024-01-16T04:51:41;3.13;;;1.48;;
76593;SDS011;65482;50.240;14.302;2024-01-16T04:54:06;5.95;;;1.92;;
76593;SDS011;65482;50.240;14.302;2024-01-16T04:56:32;3.33;;;1.60;;
76593;SDS011;65482;50.240;14.302;2024-01-16T04:58:58;3.88;;;1.40;;
76593;SDS011;65482;50.240;14.302;2024-01-16T05:01:23;5.03;;;2.20;;
76593;SDS011;65482;50.240;14.302;2024-01-16T05:03:50;2.80;;;1.75;;
76593;SDS011;65482;50.240;14.302;2024-01-16T05:06:16;3.83;;;2.00;;
76593;SDS011;65482;50.240;14.302;2024-01-16T05:08:42;2.28;;;1.60;;
76593;SDS011;65482;50.240;14.302;2024-01-16T05:11:08;4.07;;;2.13;;
76593;SDS011;65482;50.240;14.302;2024-01-16T05:13:34;5.50;;;1.60;;
76593;SDS011;65482;50.240;14.302;2024-01-16T05:16:00;3.55;;;1.88;;
76593;SDS011;65482;50.240;14.302;2024-01-16T05:18:26;2.67;;;1.60;;
76593;SDS011;65482;50.240;14.302;2024-01-16T05:20:52;4.65;;;1.80;;
76593;SDS011;65482;50.240;14.302;2024-01-16T05:23:17;4.97;;;1.92;;
76593;SDS011;65482;50.240;14.302;2024-01-16T05:25:43;4.93;;;1.60;;
76593;SDS011;65482;50.240;14.302;2024-01-16T05:28:09;3.28;;;2.00;;
76593;SDS011;65482;50.240;14.302;2024-01-16T05:30:35;5.47;;;2.88;;
76593;SDS011;65482;50.240;14.302;2024-01-16T05:33:01;2.58;;;1.48;;
76593;SDS011;65482;50.240;14.302;2024-01-16T05:35:27;2.80;;;1.60;;
76593;SDS011;65482;50.240;14.302;2024-01-16T05:37:56;4.20;;;1.50;;
76593;SDS011;65482;50.240;14.302;2024-01-16T05:40:22;1.77;;;1.35;;
76593;SDS011;65482;50.240;14.302;2024-01-16T05:42:48;2.97;;;1.98;;
76593;SDS011;65482;50.240;14.302;2024-01-16T05:45:14;4.13;;;1.45;;
76593;SDS011;65482;50.240;14.302;2024-01-16T05:47:40;2.40;;;1.60;;
76593;SDS011;65482;50.240;14.302;2024-01-16T05:50:06;3.38;;;2.08;;
76593;SDS011;65482;50.240;14.302;2024-01-16T05:52:32;3.95;;;1.90;;
76593;SDS011;65482;50.240;14.302;2024-01-16T05:54:58;6.38;;;2.50;;
76593;SDS011;65482;50.240;14.302;2024-01-16T05:57:25;3.97;;;2.13;;
76593;SDS011;65482;50.240;14.302;2024-01-16T05:59:51;4.30;;;2.28;;
76593;SDS011;65482;50.240;14.302;2024-01-16T06:02:16;3.55;;;1.80;;
76593;SDS011;65482;50.240;14.302;2024-01-16T06:04:42;5.35;;;1.85;;
76593;SDS011;65482;50.240;14.302;2024-01-16T06:07:08;3.35;;;1.92;;
76593;SDS011;65482;50.240;14.302;2024-01-16T06:09:40;8.18;;;2.30;;
76593;SDS011;65482;50.240;14.302;2024-01-16T06:12:07;4.53;;;2.30;;
76593;SDS011;65482;50.240;14.302;2024-01-16T06:14:34;3.45;;;2.10;;
76593;SDS011;65482;50.240;14.302;2024-01-16T06:16:59;3.72;;;2.58;;
76593;SDS011;65482;50.240;14.302;2024-01-16T06:19:25;6.55;;;2.65;;
76593;SDS011;65482;50.240;14.302;2024-01-16T06:21:51;5.20;;;2.58;;
76593;SDS011;65482;50.240;14.302;2024-01-16T06:24:17;4.50;;;2.53;;
76593;SDS011;65482;50.240;14.302;2024-01-16T06:26:43;4.38;;;2.70;;
76593;SDS011;65482;50.240;14.302;2024-01-16T06:29:08;5.80;;;3.00;;
76593;SDS011;65482;50.240;14.302;2024-01-16T06:31:34;4.68;;;2.60;;
76593;SDS011;65482;50.240;14.302;2024-01-16T06:34:00;5.18;;;2.70;;
76593;SDS011;65482;50.240;14.302;2024-01-16T06:36:25;5.35;;;2.78;;
76593;SDS011;65482;50.240;14.302;2024-01-16T06:38:54;10.18;;;2.80;;
76593;SDS011;65482;50.240;14.302;2024-01-16T06:41:22;6.07;;;2.97;;
76593;SDS011;65482;50.240;14.302;2024-01-16T06:43:51;5.30;;;3.28;;
76593;SDS011;65482;50.240;14.302;2024-01-16T06:46:17;3.67;;;2.60;;
76593;SDS011;65482;50.240;14.302;2024-01-16T06:52:40;6.90;;;2.78;;
76593;SDS011;65482;50.240;14.302;2024-01-16T06:56:07;4.72;;;1.92;;
76593;SDS011;65482;50.240;14.302;2024-01-16T06:59:13;3.22;;;2.03;;
76593;SDS011;65482;50.240;14.302;2024-01-16T07:02:18;4.13;;;2.15;;
76593;SDS011;65482;50.240;14.302;2024-01-16T07:05:19;5.45;;;2.38;;
76593;SDS011;65482;50.240;14.302;2024-01-16T07:08:01;7.72;;;2.55;;
76593;SDS011;65482;50.240;14.302;2024-01-16T07:10:30;7.13;;;2.50;;
76593;SDS011;65482;50.240;14.302;2024-01-16T07:12:59;4.35;;;2.38;;
76593;SDS011;65482;50.240;14.302;2024-01-16T07:15:25;9.43;;;2.40;;
76593;SDS011;65482;50.240;14.302;2024-01-16T07:17:51;4.70;;;2.50;;
76593;SDS011;65482;50.240;14.302;2024-01-16T07:20:20;4.35;;;2.30;;
76593;SDS011;65482;50.240;14.302;2024-01-16T07:22:46;5.57;;;2.50;;
76593;SDS011;65482;50.240;14.302;2024-01-16T07:25:12;5.15;;;2.60;;
76593;SDS011;65482;50.240;14.302;2024-01-16T07:27:37;7.75;;;2.70;;
76593;SDS011;65482;50.240;14.302;2024-01-16T07:30:04;3.85;;;2.20;;
76593;SDS011;65482;50.240;14.302;2024-01-16T07:32:30;4.88;;;2.17;;
76593;SDS011;65482;50.240;14.302;2024-01-16T07:34:57;5.45;;;2.67;;
76593;SDS011;65482;50.240;14.302;2024-01-16T07:37:22;6.30;;;2.53;;
76593;SDS011;65482;50.240;14.302;2024-01-16T07:39:48;5.28;;;2.67;;
76593;SDS011;65482;50.240;14.302;2024-01-16T07:42:18;4.32;;;2.80;;
76593;SDS011;65482;50.240;14.302;2024-01-16T07:44:44;6.38;;;2.40;;
76593;SDS011;65482;50.240;14.302;2024-01-16T07:47:10;4.65;;;2.38;;
76593;SDS011;65482;50.240;14.302;2024-01-16T07:49:57;11.55;;;3.50;;
76593;SDS011;65482;50.240;14.302;2024-01-16T07:52:35;10.10;;;3.13;;
76593;SDS011;65482;50.240;14.302;2024-01-16T07:55:01;6.82;;;2.92;;
76593;SDS011;65482;50.240;14.302;2024-01-16T07:57:29;6.40;;;2.80;;
76593;SDS011;65482;50.240;14.302;2024-01-16T07:59:55;5.45;;;2.42;;
76593;SDS011;65482;50.240;14.302;2024-01-16T08:05:27;8.43;;;2.95;;
76593;SDS011;65482;50.240;14.302;2024-01-16T08:08:04;6.45;;;2.45;;
76593;SDS011;65482;50.240;14.302;2024-01-16T08:10:46;5.85;;;2.30;;
76593;SDS011;65482;50.240;14.302;2024-01-16T08:13:39;7.38;;;2.88;;
76593;SDS011;65482;50.240;14.302;2024-01-16T08:16:16;12.05;;;4.72;;
76593;SDS011;65482;50.240;14.302;2024-01-16T08:18:52;9.07;;;4.50;;
76593;SDS011;65482;50.240;14.302;2024-01-16T08:21:49;12.23;;;4.95;;
76593;SDS011;65482;50.240;14.302;2024-01-16T08:27:21;8.00;;;4.63;;
76593;SDS011;65482;50.240;14.302;2024-01-16T08:30:19;9.15;;;5.57;;
76593;SDS011;65482;50.240;14.302;2024-01-16T08:33:23;4.78;;;2.63;;
76593;SDS011;65482;50.240;14.302;2024-01-16T08:35:49;10.30;;;4.15;;
76593;SDS011;65482;50.240;14.302;2024-01-16T08:38:15;6.90;;;2.75;;
76593;SDS011;65482;50.240;14.302;2024-01-16T08:40:40;6.18;;;3.38;;
76593;SDS011;65482;50.240;14.302;2024-01-16T08:43:06;9.10;;;3.60;;
76593;SDS011;65482;50.240;14.302;2024-01-16T08:45:33;7.75;;;4.03;;
76593;SDS011;65482;50.240;14.302;2024-01-16T08:48:01;7.47;;;3.63;;
76593;SDS011;65482;50.240;14.302;2024-01-16T08:50:30;8.95;;;4.07;;
76593;SDS011;65482;50.240;14.302;2024-01-16T08:52:56;6.28;;;3.78;;
76593;SDS011;65482;50.240;14.302;2024-01-16T08:55:22;3.85;;;2.38;;
76593;SDS011;65482;50.240;14.302;2024-01-16T08:57:48;7.97;;;2.30;;
76593;SDS011;65482;50.240;14.302;2024-01-16T09:00:14;6.70;;;2.20;;
76593;SDS011;65482;50.240;14.302;2024-01-16T09:02:43;4.60;;;2.05;;
76593;SDS011;65482;50.240;14.302;2024-01-16T09:05:09;4.85;;;2.05;;
76593;SDS011;65482;50.240;14.302;2024-01-16T09:07:35;6.03;;;2.35;;
76593;SDS011;65482;50.240;14.302;2024-01-16T09:10:00;8.27;;;2.40;;
76593;SDS011;65482;50.240;14.302;2024-01-16T09:12:26;5.60;;;2.20;;
76593;SDS011;65482;50.240;14.302;2024-01-16T09:14:51;4.40;;;1.95;;
76593;SDS011;65482;50.240;14.302;2024-01-16T09:17:17;4.43;;;2.03;;
76593;SDS011;65482;50.240;14.302;2024-01-16T09:19:42;7.32;;;2.00;;
76593;SDS011;65482;50.240;14.302;2024-01-16T09:22:08;7.00;;;2.63;;
76593;SDS011;65482;50.240;14.302;2024-01-16T09:24:33;5.50;;;2.13;;
76593;SDS011;65482;50.240;14.302;2024-01-16T09:26:59;4.18;;;2.20;;
76593;SDS011;65482;50.240;14.302;2024-01-16T09:29:25;4.53;;;2.20;;
76593;SDS011;65482;50.240;14.302;2024-01-16T09:31:50;3.55;;;1.92;;
76593;SDS011;65482;50.240;14.302;2024-01-16T09:34:18;4.05;;;2.13;;
76593;SDS011;65482;50.240;14.302;2024-01-16T09:36:44;2.92;;;1.98;;
76593;SDS011;65482;50.240;14.302;2024-01-16T09:39:09;3.70;;;1.88;;
76593;SDS011;65482;50.240;14.302;2024-01-16T09:41:39;4.28;;;1.70;;
76593;SDS011;65482;50.240;14.302;2024-01-16T09:44:04;5.18;;;1.88;;
76593;SDS011;65482;50.240;14.302;2024-01-16T09:46:31;3.92;;;2.00;;
76593;SDS011;65482;50.240;14.302;2024-01-16T09:48:57;6.85;;;1.88;;
76593;SDS011;65482;50.240;14.302;2024-01-16T09:51:30;5.63;;;1.60;;
76593;SDS011;65482;50.240;14.302;2024-01-16T09:53:56;3.15;;;1.50;;
76593;SDS011;65482;50.240;14.302;2024-01-16T09:56:49;3.75;;;1.58;;
76593;SDS011;65482;50.240;14.302;2024-01-16T09:59:29;3.45;;;1.52;;
76593;SDS011;65482;50.240;14.302;2024-01-16T10:05:18;3.95;;;2.33;;
76593;SDS011;65482;50.240;14.302;2024-01-16T10:07:47;4.38;;;2.00;;
76593;SDS011;65482;50.240;14.302;2024-01-16T10:11:05;4.88;;;1.77;;
76593;SDS011;65482;50.240;14.302;2024-01-16T10:14:20;3.13;;;1.70;;
76593;SDS011;65482;50.240;14.302;2024-01-16T10:17:18;6.05;;;1.88;;
76593;SDS011;65482;50.240;14.302;2024-01-16T10:20:00;3.78;;;1.80;;
76593;SDS011;65482;50.240;14.302;2024-01-16T10:22:35;5.28;;;2.05;;
76593;SDS011;65482;50.240;14.302;2024-01-16T10:29:06;6.32;;;2.08;;
76593;SDS011;65482;50.240;14.302;2024-01-16T10:31:52;3.00;;;1.75;;
76593;SDS011;65482;50.240;14.302;2024-01-16T10:34:37;2.60;;;1.80;;
76593;SDS011;65482;50.240;14.302;2024-01-16T10:37:40;3.42;;;1.50;;
76593;SDS011;65482;50.240;14.302;2024-01-16T10:41:09;3.10;;;1.63;;
76593;SDS011;65482;50.240;14.302;2024-01-16T10:44:25;4.72;;;1.98;;
76593;SDS011;65482;50.240;14.302;2024-01-16T10:50:16;4.05;;;1.85;;
76593;SDS011;65482;50.240;14.302;2024-01-16T10:52:49;3.55;;;1.65;;
76593;SDS011;65482;50.240;14.302;2024-01-16T10:55:49;4.53;;;1.95;;
76593;SDS011;65482;50.240;14.302;2024-01-16T11:18:14;3.05;;;1.75;;
76593;SDS011;65482;50.240;14.302;2024-01-16T11:20:53;6.78;;;1.83;;
76593;SDS011;65482;50.240;14.302;2024-01-16T11:32:37;6.88;;;1.92;;
76593;SDS011;65482;50.240;14.302;2024-01-16T11:35:58;4.07;;;2.03;;
76593;SDS011;65482;50.240;14.302;2024-01-16T11:38:41;4.55;;;2.03;;
76593;SDS011;65482;50.240;14.302;2024-01-16T11:41:54;3.20;;;2.00;;
76593;SDS011;65482;50.240;14.302;2024-01-16T11:44:46;4.03;;;1.95;;
76593;SDS011;65482;50.240;14.302;2024-01-16T11:47:29;3.80;;;1.70;;
76593;SDS011;65482;50.240;14.302;2024-01-16T11:50:09;2.92;;;1.70;;
76593;SDS011;65482;50.240;14.302;2024-01-16T12:00:59;5.15;;;1.70;;
76593;SDS011;65482;50.240;14.302;2024-01-16T12:24:11;4.65;;;2.20;;
76593;SDS011;65482;50.240;14.302;2024-01-16T12:36:43;4.07;;;2.00;;
76593;SDS011;65482;50.240;14.302;2024-01-16T12:52:21;3.97;;;1.60;;
76593;SDS011;65482;50.240;14.302;2024-01-16T13:00:35;4.38;;;1.83;;
76593;SDS011;65482;50.240;14.302;2024-01-16T13:12:05;5.05;;;2.00;;
76593;SDS011;65482;50.240;14.302;2024-01-16T13:23:04;4.45;;;1.80;;
76593;SDS011;65482;50.240;14.302;2024-01-16T13:25:36;4.70;;;1.90;;
76593;SDS011;65482;50.240;14.302;2024-01-16T13:28:58;4.82;;;2.15;;
76593;SDS011;65482;50.240;14.302;2024-01-16T13:31:24;5.77;;;2.13;;
76593;SDS011;65482;50.240;14.302;2024-01-16T13:33:49;4.00;;;2.17;;
76593;SDS011;65482;50.240;14.302;2024-01-16T13:36:21;7.47;;;2.58;;
76593;SDS011;65482;50.240;14.302;2024-01-16T13:38:55;5.97;;;2.40;;
76593;SDS011;65482;50.240;14.302;2024-01-16T13:41:26;7.43;;;2.83;;
76593;SDS011;65482;50.240;14.302;2024-01-16T13:43:58;10.70;;;4.53;;
76593;SDS011;65482;50.240;14.302;2024-01-16T13:46:27;9.73;;;5.22;;
76593;SDS011;65482;50.240;14.302;2024-01-16T13:52:42;15.27;;;6.37;;
76593;SDS011;65482;50.240;14.302;2024-01-16T13:58:11;32.30;;;10.38;;
76593;SDS011;65482;50.240;14.302;2024-01-16T14:01:01;66.20;;;19.33;;
76593;SDS011;65482;50.240;14.302;2024-01-16T14:03:48;38.33;;;12.20;;
76593;SDS011;65482;50.240;14.302;2024-01-16T14:06:41;29.83;;;10.32;;
76593;SDS011;65482;50.240;14.302;2024-01-16T14:10:08;21.05;;;8.88;;
76593;SDS011;65482;50.240;14.302;2024-01-16T14:15:56;7.18;;;2.92;;
76593;SDS011;65482;50.240;14.302;2024-01-16T14:22:31;7.07;;;2.58;;
76593;SDS011;65482;50.240;14.302;2024-01-16T14:25:14;4.80;;;2.60;;
76593;SDS011;65482;50.240;14.302;2024-01-16T14:27:48;8.20;;;3.47;;
76593;SDS011;65482;50.240;14.302;2024-01-16T14:30:24;7.57;;;2.85;;
76593;SDS011;65482;50.240;14.302;2024-01-16T14:32:54;6.50;;;2.90;;
76593;SDS011;65482;50.240;14.302;2024-01-16T14:35:55;7.00;;;3.33;;
76593;SDS011;65482;50.240;14.302;2024-01-16T14:38:21;6.75;;;3.40;;
76593;SDS011;65482;50.240;14.302;2024-01-16T14:40:50;12.55;;;3.00;;
76593;SDS011;65482;50.240;14.302;2024-01-16T14:45:54;6.85;;;3.42;;
76593;SDS011;65482;50.240;14.302;2024-01-16T14:48:23;9.60;;;3.35;;
76593;SDS011;65482;50.240;14.302;2024-01-16T14:50:49;9.02;;;4.18;;
76593;SDS011;65482;50.240;14.302;2024-01-16T14:53:16;11.20;;;3.92;;
76593;SDS011;65482;50.240;14.302;2024-01-16T14:55:41;29.52;;;9.52;;
76593;SDS011;65482;50.240;14.302;2024-01-16T14:58:07;27.42;;;7.97;;
76593;SDS011;65482;50.240;14.302;2024-01-16T15:00:33;67.80;;;16.60;;
76593;SDS011;65482;50.240;14.302;2024-01-16T15:02:59;55.42;;;14.00;;
76593;SDS011;65482;50.240;14.302;2024-01-16T15:05:25;65.82;;;16.13;;
76593;SDS011;65482;50.240;14.302;2024-01-16T15:07:51;48.70;;;12.35;;
76593;SDS011;65482;50.240;14.302;2024-01-16T15:10:19;39.53;;;10.95;;
76593;SDS011;65482;50.240;14.302;2024-01-16T15:12:46;42.28;;;11.77;;
76593;SDS011;65482;50.240;14.302;2024-01-16T15:15:13;32.90;;;9.98;;
76593;SDS011;65482;50.240;14.302;2024-01-16T15:17:41;29.08;;;9.70;;
76593;SDS011;65482;50.240;14.302;2024-01-16T15:20:08;17.17;;;6.20;;
76593;SDS011;65482;50.240;14.302;2024-01-16T15:22:39;24.38;;;8.30;;
76593;SDS011;65482;50.240;14.302;2024-01-16T15:25:06;21.85;;;8.07;;
76593;SDS011;65482;50.240;14.302;2024-01-16T15:27:32;19.25;;;7.43;;
76593;SDS011;65482;50.240;14.302;2024-01-16T15:29:58;25.25;;;9.50;;
76593;SDS011;65482;50.240;14.302;2024-01-16T15:32:25;23.55;;;9.40;;
76593;SDS011;65482;50.240;14.302;2024-01-16T15:34:50;23.08;;;8.38;;
76593;SDS011;65482;50.240;14.302;2024-01-16T15:37:16;27.40;;;11.45;;
76593;SDS011;65482;50.240;14.302;2024-01-16T15:39:41;26.05;;;7.68;;
76593;SDS011;65482;50.240;14.302;2024-01-16T15:42:07;24.90;;;8.27;;
76593;SDS011;65482;50.240;14.302;2024-01-16T15:44:33;29.35;;;10.25;;
76593;SDS011;65482;50.240;14.302;2024-01-16T15:47:02;27.83;;;9.90;;
76593;SDS011;65482;50.240;14.302;2024-01-16T15:49:28;17.63;;;7.63;;
76593;SDS011;65482;50.240;14.302;2024-01-16T15:51:56;11.20;;;5.90;;
76593;SDS011;65482;50.240;14.302;2024-01-16T15:54:24;12.60;;;4.65;;
76593;SDS011;65482;50.240;14.302;2024-01-16T15:56:50;9.38;;;4.30;;
76593;SDS011;65482;50.240;14.302;2024-01-16T15:59:16;9.65;;;4.35;;
76593;SDS011;65482;50.240;14.302;2024-01-16T16:01:41;8.07;;;3.97;;
76593;SDS011;65482;50.240;14.302;2024-01-16T16:04:07;7.45;;;3.42;;
76593;SDS011;65482;50.240;14.302;2024-01-16T16:06:39;10.60;;;4.28;;
76593;SDS011;65482;50.240;14.302;2024-01-16T16:09:05;7.20;;;4.25;;
76593;SDS011;65482;50.240;14.302;2024-01-16T16:11:40;10.30;;;4.78;;
76593;SDS011;65482;50.240;14.302;2024-01-16T16:14:07;15.30;;;5.68;;
76593;SDS011;65482;50.240;14.302;2024-01-16T16:16:34;9.82;;;4.55;;
76593;SDS011;65482;50.240;14.302;2024-01-16T16:19:00;12.13;;;5.07;;
76593;SDS011;65482;50.240;14.302;2024-01-16T16:21:26;10.75;;;5.30;;
76593;SDS011;65482;50.240;14.302;2024-01-16T16:23:51;11.23;;;5.47;;
76593;SDS011;65482;50.240;14.302;2024-01-16T16:26:33;9.45;;;5.32;;
76593;SDS011;65482;50.240;14.302;2024-01-16T16:29:01;9.00;;;4.95;;
76593;SDS011;65482;50.240;14.302;2024-01-16T16:31:31;13.05;;;5.07;;
76593;SDS011;65482;50.240;14.302;2024-01-16T16:36:23;7.45;;;4.50;;
76593;SDS011;65482;50.240;14.302;2024-01-16T16:38:50;9.40;;;4.32;;
76593;SDS011;65482;50.240;14.302;2024-01-16T16:41:16;10.27;;;4.60;;
76593;SDS011;65482;50.240;14.302;2024-01-16T16:43:42;10.60;;;4.97;;
76593;SDS011;65482;50.240;14.302;2024-01-16T16:46:08;10.98;;;4.82;;
76593;SDS011;65482;50.240;14.302;2024-01-16T16:48:34;12.57;;;5.50;;
76593;SDS011;65482;50.240;14.302;2024-01-16T16:50:59;10.77;;;5.25;;
76593;SDS011;65482;50.240;14.302;2024-01-16T16:53:25;9.80;;;4.70;;
76593;SDS011;65482;50.240;14.302;2024-01-16T16:55:50;11.70;;;4.72;;
76593;SDS011;65482;50.240;14.302;2024-01-16T16:58:16;10.82;;;4.88;;
76593;SDS011;65482;50.240;14.302;2024-01-16T17:00:41;9.13;;;4.82;;
76593;SDS011;65482;50.240;14.302;2024-01-16T17:03:07;16.75;;;8.90;;
76593;SDS011;65482;50.240;14.302;2024-01-16T17:05:33;9.55;;;5.07;;
76593;SDS011;65482;50.240;14.302;2024-01-16T17:07:58;8.27;;;4.55;;
76593;SDS011;65482;50.240;14.302;2024-01-16T17:10:24;10.57;;;4.35;;
76593;SDS011;65482;50.240;14.302;2024-01-16T17:12:50;9.32;;;4.40;;